Time;durP1;ratioP1;P1;durP2;ratioP2;P2;SDS_P1;SDS_P2;PMS_P1;PMS_P2;Temp;Humidity;BMP_temperature;BMP_pressure;BME280_temperature;BME280_humidity;BME280_pressure;Samples;Min_cycle;Max_cycle;Signal;HPM_P1;HPM_P2
2021/05/28 00:00:14;;;;;;;0.82;0.17;;;16.70;73.40;16.80;99754.00;;;;344118;28;91147;-88
2021/05/28 00:00:26;;;;;;;1.90;0.30;;;16.80;73.50;16.90;99752.00;;;;341821;28;96891;-88
2021/05/28 00:00:38;;;;;;;1.80;0.30;;;16.80;73.70;16.90;99763.00;;;;342800;28;91461;-88
2021/05/28 00:00:50;;;;;;;1.67;0.40;;;16.80;73.80;16.90;99755.00;;;;339544;28;91635;-87
2021/05/28 00:01:02;;;;;;;2.97;0.40;;;16.80;73.70;17.00;99757.00;;;;340306;28;91566;-87
2021/05/28 00:01:14;;;;;;;2.20;0.28;;;16.80;74.10;16.90;99758.00;;;;339184;28;94086;-88
2021/05/28 00:01:27;;;;;;;0.65;0.10;;;16.80;73.60;16.90;99755.00;;;;341673;28;91104;-88
2021/05/28 00:01:38;;;;;;;0.47;0.17;;;16.80;73.70;16.90;99758.00;;;;342289;28;95557;-87
2021/05/28 00:01:50;;;;;;;0.70;0.20;;;16.80;73.40;16.90;99753.00;;;;341607;28;91114;-88
2021/05/28 00:02:03;;;;;;;0.77;0.20;;;16.80;73.20;16.90;99756.00;;;;341747;28;97116;-88
2021/05/28 00:02:15;;;;;;;0.70;0.10;;;16.80;73.30;16.90;99756.00;;;;341616;28;91146;-88
2021/05/28 00:02:26;;;;;;;1.10;0.20;;;16.80;73.20;16.90;99755.00;;;;343024;28;95862;-88
2021/05/28 00:02:38;;;;;;;0.90;0.20;;;16.80;73.30;16.90;99766.00;;;;341653;28;90404;-87
2021/05/28 00:02:51;;;;;;;0.70;0.10;;;16.80;73.30;16.90;99760.00;;;;339255;28;93763;-88
2021/05/28 00:03:02;;;;;;;0.60;0.10;;;16.80;73.30;16.90;99755.00;;;;340306;28;91101;-88
2021/05/28 00:03:14;;;;;;;0.80;0.20;;;16.80;73.30;16.90;99761.00;;;;340384;28;94457;-88
2021/05/28 00:03:26;;;;;;;0.70;0.13;;;16.90;73.10;16.80;99753.00;;;;342974;28;92077;-88
2021/05/28 00:03:38;;;;;;;2.28;0.20;;;16.80;73.00;16.80;99753.00;;;;339458;28;93754;-88
2021/05/28 00:03:50;;;;;;;2.20;0.30;;;16.90;73.00;16.90;99760.00;;;;342769;28;92023;-88
2021/05/28 00:04:02;;;;;;;1.95;0.20;;;16.90;73.10;16.80;99762.00;;;;343147;28;97324;-88
2021/05/28 00:04:14;;;;;;;0.70;0.10;;;16.90;73.20;16.80;99751.00;;;;341592;28;92264;-87
2021/05/28 00:04:26;;;;;;;0.63;0.15;;;16.80;73.10;16.90;99752.00;;;;339097;28;92480;-88
2021/05/28 00:04:38;;;;;;;0.75;0.20;;;16.80;73.00;16.90;99767.00;;;;338956;28;90479;-87
2021/05/28 00:04:49;;;;;;;0.60;0.20;;;16.80;73.10;16.90;99763.00;;;;343246;28;92358;-88
2021/05/28 00:05:02;;;;;;;0.60;0.17;;;16.80;73.00;16.90;99753.00;;;;341596;28;92031;-87
2021/05/28 00:05:15;;;;;;;0.45;0.17;;;16.80;73.00;16.80;99758.00;;;;342711;28;97374;-88
2021/05/28 00:05:27;;;;;;;0.40;0.10;;;16.90;73.10;16.80;99756.00;;;;340065;28;92119;-88
2021/05/28 00:05:39;;;;;;;0.38;0.10;;;16.90;73.00;16.90;99759.00;;;;344211;28;97061;-88
2021/05/28 00:05:50;;;;;;;0.57;0.20;;;16.90;73.00;16.90;99763.00;;;;344036;28;91954;-88
2021/05/28 00:06:02;;;;;;;1.70;0.20;;;16.90;72.90;16.90;99757.00;;;;341257;28;95482;-87
2021/05/28 00:06:14;;;;;;;1.80;0.20;;;16.80;73.10;16.90;99765.00;;;;342608;28;91947;-88
2021/05/28 00:06:26;;;;;;;1.05;0.20;;;16.90;73.30;16.90;99758.00;;;;342742;28;94128;-88
2021/05/28 00:06:38;;;;;;;0.98;0.20;;;16.90;73.20;16.90;99757.00;;;;339702;28;91571;-88
2021/05/28 00:06:50;;;;;;;0.82;0.10;;;16.90;73.10;16.90;99753.00;;;;340424;28;93698;-88
2021/05/28 00:07:02;;;;;;;0.52;0.10;;;16.90;73.10;16.80;99754.00;;;;342658;28;92099;-86
2021/05/28 00:07:14;;;;;;;1.40;0.20;;;16.90;73.10;16.70;99768.00;;;;341471;28;93830;-88
2021/05/28 00:07:26;;;;;;;1.30;0.20;;;16.90;72.90;16.80;99754.00;;;;339867;28;91944;-88
2021/05/28 00:07:37;;;;;;;1.50;0.20;;;16.90;72.90;16.80;99758.00;;;;340399;28;95926;-87
2021/05/28 00:07:49;;;;;;;1.60;0.20;;;16.90;72.80;16.90;99759.00;;;;341357;28;91027;-88
2021/05/28 00:08:01;;;;;;;1.70;0.20;;;16.90;72.90;16.90;99764.00;;;;339962;28;94563;-88
2021/05/28 00:08:13;;;;;;;0.63;0.20;;;16.90;72.90;16.80;99766.00;;;;338582;28;91160;-88
2021/05/28 00:08:25;;;;;;;2.40;0.30;;;16.80;72.60;16.80;99758.00;;;;341464;28;94791;-88
2021/05/28 00:08:37;;;;;;;2.53;0.30;;;16.90;72.60;16.90;99762.00;;;;341135;28;91370;-87
2021/05/28 00:08:49;;;;;;;2.08;0.30;;;16.80;72.70;16.90;99758.00;;;;341400;28;93399;-88
2021/05/28 00:09:01;;;;;;;0.63;0.20;;;16.90;72.90;16.80;99754.00;;;;339925;28;91994;-88
2021/05/28 00:09:13;;;;;;;0.93;0.20;;;16.80;72.70;16.80;99762.00;;;;338600;28;96580;-88
2021/05/28 00:09:25;;;;;;;1.08;0.15;;;16.80;72.60;16.60;99763.00;;;;341145;28;91956;-88
2021/05/28 00:09:37;;;;;;;1.98;0.30;;;16.80;72.40;16.50;99770.00;;;;341211;28;96523;-88
2021/05/28 00:09:49;;;;;;;2.17;0.30;;;16.70;72.30;16.60;99767.00;;;;341254;28;91989;-87
2021/05/28 00:10:01;;;;;;;1.45;0.20;;;16.70;72.50;16.70;99760.00;;;;339827;28;96548;-88
2021/05/28 00:10:13;;;;;;;0.50;0.15;;;16.70;72.80;16.80;99767.00;;;;341197;28;91981;-88
2021/05/28 00:10:24;;;;;;;0.60;0.17;;;16.70;73.00;16.80;99761.00;;;;341383;28;96605;-88
2021/05/28 00:10:36;;;;;;;0.95;0.20;;;16.70;73.00;16.70;99762.00;;;;339720;28;91399;-87
2021/05/28 00:10:49;;;;;;;2.00;0.20;;;16.80;72.90;16.70;99761.00;;;;340003;28;95400;-88
2021/05/28 00:11:00;;;;;;;2.53;0.20;;;16.80;72.80;16.80;99761.00;;;;339830;28;91971;-88
2021/05/28 00:11:12;;;;;;;1.10;0.20;;;16.80;73.10;16.80;99749.00;;;;338604;28;96647;-88
2021/05/28 00:11:24;;;;;;;1.13;0.20;;;16.70;73.10;16.90;99764.00;;;;339774;28;92275;-87
2021/05/28 00:11:36;;;;;;;0.75;0.15;;;16.80;73.00;16.80;99761.00;;;;339978;28;95388;-88
2021/05/28 00:11:48;;;;;;;0.70;0.20;;;16.80;73.20;16.90;99765.00;;;;338491;28;91956;-88
2021/05/28 00:12:00;;;;;;;0.60;0.20;;;16.80;72.90;16.90;99760.00;;;;340068;28;94075;-88
2021/05/28 00:12:12;;;;;;;0.55;0.20;;;16.80;72.80;16.90;99762.00;;;;341380;28;91919;-88
2021/05/28 00:12:24;;;;;;;0.60;0.10;;;16.80;72.70;16.80;99758.00;;;;340035;28;95497;-88
2021/05/28 00:12:37;;;;;;;2.05;0.60;;;16.80;72.80;16.90;99765.00;;;;339440;28;91482;-88
2021/05/28 00:12:49;;;;;;;2.33;0.70;;;16.80;72.80;16.90;99761.00;;;;341336;28;96646;-90
2021/05/28 00:13:01;;;;;;;1.60;0.40;;;16.80;72.70;16.80;99763.00;;;;344027;28;91064;-88
2021/05/28 00:13:13;;;;;;;1.35;0.40;;;16.80;72.70;16.60;99754.00;;;;342657;28;96620;-88
2021/05/28 00:13:25;;;;;;;1.23;0.20;;;16.80;72.70;16.70;99755.00;;;;343920;28;91974;-88
2021/05/28 00:13:37;;;;;;;0.88;0.10;;;16.80;72.70;16.80;99760.00;;;;342391;28;93877;-88
2021/05/28 00:13:49;;;;;;;1.40;0.10;;;16.80;72.70;16.80;99764.00;;;;343864;28;92197;-88
2021/05/28 00:14:01;;;;;;;1.42;0.20;;;16.80;72.70;16.80;99753.00;;;;343980;28;96498;-88
2021/05/28 00:14:13;;;;;;;1.40;0.20;;;16.80;72.80;16.70;99762.00;;;;343945;28;91962;-87
2021/05/28 00:14:25;;;;;;;1.65;0.20;;;16.80;72.70;16.60;99762.00;;;;341337;28;93717;-87
2021/05/28 00:14:37;;;;;;;1.02;0.30;;;16.80;72.50;16.60;99763.00;;;;341242;28;91316;-88
2021/05/28 00:14:49;;;;;;;1.67;0.30;;;16.80;72.60;16.70;99762.00;;;;343973;28;96469;-88
2021/05/28 00:15:01;;;;;;;1.98;0.30;;;16.80;72.60;16.80;99760.00;;;;343889;28;91963;-88
2021/05/28 00:15:13;;;;;;;1.58;0.20;;;16.80;72.60;16.70;99762.00;;;;342630;28;94615;-88
2021/05/28 00:15:25;;;;;;;1.20;0.20;;;16.80;72.70;16.60;99762.00;;;;342517;28;91977;-88
2021/05/28 00:15:37;;;;;;;0.93;0.40;;;16.80;72.40;16.60;99766.00;;;;341972;28;96374;-88
2021/05/28 00:15:49;;;;;;;0.85;0.40;;;16.70;72.50;16.70;99759.00;;;;341335;28;92021;-88
2021/05/28 00:16:02;;;;;;;0.63;0.20;;;16.70;72.60;16.80;99760.00;;;;342839;28;93747;-88
2021/05/28 00:16:14;;;;;;;0.75;0.25;;;16.70;72.70;16.80;99755.00;;;;341245;28;91943;-88
2021/05/28 00:16:26;;;;;;;0.60;0.20;;;16.80;72.50;16.70;99758.00;;;;339944;28;98058;-88
2021/05/28 00:16:37;;;;;;;0.57;0.20;;;16.80;72.40;16.80;99755.00;;;;340008;28;91379;-88
2021/05/28 00:16:49;;;;;;;0.45;0.10;;;16.80;72.50;16.80;99755.00;;;;338654;28;93077;-86
2021/05/28 00:17:01;;;;;;;0.45;0.10;;;16.80;72.40;16.80;99756.00;;;;342607;28;91118;-88
2021/05/28 00:17:13;;;;;;;0.47;0.20;;;16.80;72.90;16.80;99757.00;;;;344125;28;95534;-88
2021/05/28 00:17:25;;;;;;;0.55;0.20;;;16.80;72.50;16.90;99769.00;;;;341218;28;91983;-88
2021/05/28 00:17:37;;;;;;;0.68;0.20;;;16.80;72.50;16.90;99761.00;;;;344102;28;94528;-88
2021/05/28 00:17:49;;;;;;;0.90;0.17;;;16.80;72.50;16.90;99763.00;;;;343879;28;91884;-88
2021/05/28 00:18:01;;;;;;;0.98;0.15;;;16.80;72.50;16.90;99766.00;;;;341458;28;94343;-88
2021/05/28 00:18:13;;;;;;;0.60;0.20;;;16.80;72.50;16.90;99765.00;;;;342620;28;92019;-88
2021/05/28 00:18:25;;;;;;;0.85;0.25;;;16.80;72.50;16.90;99761.00;;;;345381;28;96811;-88
2021/05/28 00:18:37;;;;;;;1.05;0.20;;;16.80;72.50;16.80;99766.00;;;;341379;28;91406;-88
2021/05/28 00:18:49;;;;;;;1.50;0.20;;;16.80;72.50;16.90;99767.00;;;;340268;28;95090;-88
2021/05/28 00:19:01;;;;;;;1.30;0.20;;;16.80;72.40;16.80;99772.00;;;;342591;28;92065;-88
2021/05/28 00:19:13;;;;;;;0.80;0.20;;;16.80;72.30;16.90;99765.00;;;;338608;28;94359;-88
2021/05/28 00:19:25;;;;;;;1.10;0.20;;;16.80;72.50;16.90;99766.00;;;;340863;28;92023;-88
2021/05/28 00:19:36;;;;;;;0.95;0.15;;;16.80;72.50;16.90;99771.00;;;;338963;28;93737;-87
2021/05/28 00:19:48;;;;;;;1.05;0.30;;;16.80;72.40;16.80;99769.00;;;;343908;28;91612;-88
2021/05/28 00:20:00;;;;;;;0.90;0.30;;;16.80;72.40;16.80;99751.00;;;;342694;28;95135;-88
2021/05/28 00:20:13;;;;;;;0.95;0.32;;;16.80;72.80;17.00;99767.00;;;;339816;28;92266;-88
2021/05/28 00:20:25;;;;;;;0.75;0.20;;;16.80;72.90;17.00;99771.00;;;;342742;28;96596;-88
2021/05/28 00:20:37;;;;;;;1.08;0.20;;;16.80;72.90;17.00;99764.00;;;;341182;28;91318;-87
2021/05/28 00:20:49;;;;;;;1.40;0.20;;;16.90;73.00;16.90;99769.00;;;;342714;28;96042;-88
2021/05/28 00:21:01;;;;;;;1.50;0.20;;;16.90;72.80;16.90;99761.00;;;;341325;28;92004;-88
2021/05/28 00:21:13;;;;;;;0.50;0.20;;;16.90;72.80;16.90;99767.00;;;;339990;28;95867;-88
2021/05/28 00:21:25;;;;;;;0.50;0.10;;;16.90;72.90;17.00;99768.00;;;;342646;28;91934;-88
2021/05/28 00:21:36;;;;;;;0.50;0.20;;;16.80;72.90;17.00;99763.00;;;;341493;28;96576;-88
2021/05/28 00:21:48;;;;;;;0.60;0.20;;;16.90;72.80;16.90;99773.00;;;;340111;28;91893;-88
2021/05/28 00:22:00;;;;;;;1.10;0.17;;;16.90;72.60;17.00;99770.00;;;;340086;28;94265;-88
2021/05/28 00:22:12;;;;;;;1.40;0.20;;;16.90;72.70;17.00;99770.00;;;;338554;28;92071;-88
2021/05/28 00:22:24;;;;;;;2.45;0.20;;;16.90;72.80;17.10;99763.00;;;;342323;28;97304;-88
2021/05/28 00:22:36;;;;;;;2.58;0.20;;;16.90;72.80;17.10;99763.00;;;;341446;28;91248;-88
2021/05/28 00:22:49;;;;;;;2.10;0.20;;;16.90;72.60;17.20;99769.00;;;;341304;28;94784;-87
2021/05/28 00:23:01;;;;;;;0.90;0.20;;;16.90;72.60;17.10;99766.00;;;;341286;28;91922;-88
2021/05/28 00:23:13;;;;;;;0.60;0.20;;;16.90;72.50;17.10;99774.00;;;;341367;28;94479;-88
2021/05/28 00:23:24;;;;;;;0.57;0.20;;;16.90;72.40;17.10;99771.00;;;;341155;28;91973;-88
2021/05/28 00:23:36;;;;;;;0.70;0.20;;;16.90;72.20;17.10;99765.00;;;;341266;28;97224;-88
2021/05/28 00:23:49;;;;;;;0.60;0.20;;;16.90;72.10;16.90;99770.00;;;;341229;28;92038;-88
2021/05/28 00:24:01;;;;;;;0.57;0.10;;;16.90;72.00;16.90;99763.00;;;;341257;28;96937;-88
2021/05/28 00:24:13;;;;;;;1.15;0.20;;;16.90;72.20;17.00;99770.00;;;;341180;28;92041;-88
2021/05/28 00:24:25;;;;;;;1.73;0.30;;;16.90;72.20;16.90;99769.00;;;;341374;28;95567;-88
2021/05/28 00:24:37;;;;;;;1.60;0.30;;;16.90;72.20;16.90;99772.00;;;;343063;28;91690;-87
2021/05/28 00:24:49;;;;;;;1.20;0.38;;;16.90;71.90;16.90;99767.00;;;;338883;28;96335;-87
2021/05/28 00:25:01;;;;;;;0.95;0.40;;;16.90;71.80;17.00;99759.00;;;;338644;28;91888;-88
2021/05/28 00:25:13;;;;;;;1.10;0.30;;;16.90;71.80;17.00;99770.00;;;;341247;28;95793;-88
2021/05/28 00:25:25;;;;;;;1.00;0.22;;;16.90;71.80;16.90;99771.00;;;;337240;28;91113;-87
2021/05/28 00:25:36;;;;;;;1.40;0.20;;;16.90;71.70;17.00;99770.00;;;;338894;28;96505;-88
2021/05/28 00:25:48;;;;;;;1.95;0.25;;;16.90;71.60;17.10;99771.00;;;;339892;28;91909;-88
2021/05/28 00:26:01;;;;;;;2.85;0.40;;;16.90;71.70;17.10;99778.00;;;;341172;28;94156;-88
2021/05/28 00:26:13;;;;;;;2.60;0.30;;;16.90;71.70;17.00;99766.00;;;;338685;28;91897;-88
2021/05/28 00:26:24;;;;;;;0.73;0.20;;;16.90;71.70;17.00;99765.00;;;;339799;28;96119;-88
2021/05/28 00:26:36;;;;;;;1.00;0.20;;;16.90;71.80;17.00;99771.00;;;;339787;28;91352;-88
2021/05/28 00:26:48;;;;;;;0.93;0.20;;;16.90;72.00;16.90;99775.00;;;;340059;28;93487;-88
2021/05/28 00:27:00;;;;;;;0.98;0.13;;;16.90;71.70;16.90;99767.00;;;;339991;28;91950;-88
2021/05/28 00:27:12;;;;;;;0.90;0.20;;;16.90;71.80;16.90;99776.00;;;;341247;28;97503;-88
2021/05/28 00:27:25;;;;;;;1.02;0.20;;;16.90;71.70;17.00;99774.00;;;;342585;28;91986;-88
2021/05/28 00:27:37;;;;;;;1.23;0.25;;;16.90;71.70;16.90;99783.00;;;;341731;28;95480;-88
2021/05/28 00:27:49;;;;;;;1.90;0.30;;;16.90;71.50;16.90;99779.00;;;;340524;28;92037;-88
2021/05/28 00:28:00;;;;;;;1.73;0.38;;;16.90;71.50;16.90;99778.00;;;;342619;28;97459;-88
2021/05/28 00:28:12;;;;;;;2.10;0.30;;;16.90;72.10;16.90;99779.00;;;;341319;28;91062;-88
2021/05/28 00:28:24;;;;;;;1.45;0.30;;;16.90;71.70;17.00;99777.00;;;;341342;28;96730;-88
2021/05/28 00:28:36;;;;;;;0.50;0.22;;;16.90;71.70;17.00;99771.00;;;;341455;28;91225;-88
2021/05/28 00:28:49;;;;;;;0.50;0.20;;;16.90;71.70;17.00;99767.00;;;;341279;28;95624;-88
2021/05/28 00:29:01;;;;;;;0.80;0.20;;;16.90;71.80;17.00;99775.00;;;;342527;28;92038;-88
2021/05/28 00:29:13;;;;;;;1.02;0.13;;;16.90;71.70;17.00;99773.00;;;;342616;28;95652;-88
2021/05/28 00:29:25;;;;;;;1.10;0.20;;;16.90;71.70;16.90;99779.00;;;;341227;28;91748;-88
2021/05/28 00:29:37;;;;;;;0.50;0.20;;;16.90;71.60;16.80;99769.00;;;;339769;28;97235;-88
2021/05/28 00:29:48;;;;;;;0.35;0.13;;;16.90;71.70;16.80;99767.00;;;;341092;28;91944;-87
2021/05/28 00:30:00;;;;;;;0.80;0.15;;;16.90;71.70;16.80;99778.00;;;;341358;28;96643;-89
2021/05/28 00:30:13;;;;;;;1.05;0.17;;;16.90;71.60;16.80;99778.00;;;;341165;28;92083;-88
2021/05/28 00:30:25;;;;;;;1.52;0.20;;;16.90;71.70;16.80;99781.00;;;;342689;28;97106;-87
2021/05/28 00:30:37;;;;;;;2.08;0.20;;;16.90;71.50;16.80;99778.00;;;;340840;28;91451;-88
2021/05/28 00:30:49;;;;;;;0.90;0.20;;;16.90;71.50;16.80;99769.00;;;;341331;28;92232;-88
2021/05/28 00:31:01;;;;;;;0.75;0.20;;;16.90;71.50;16.80;99771.00;;;;341203;28;91966;-88
2021/05/28 00:31:13;;;;;;;0.40;0.20;;;16.90;71.60;16.80;99779.00;;;;341248;28;95431;-88
2021/05/28 00:31:24;;;;;;;0.40;0.20;;;16.80;71.70;16.90;99769.00;;;;338519;28;91395;-88
2021/05/28 00:31:36;;;;;;;0.50;0.20;;;16.80;71.90;16.80;99768.00;;;;341385;28;94148;-88
2021/05/28 00:31:48;;;;;;;0.70;0.22;;;16.80;71.80;16.70;99774.00;;;;342456;28;92043;-88
2021/05/28 00:32:02;;;;;;;0.82;0.30;;;16.80;71.70;16.80;99767.00;;;;341254;28;96172;-88
2021/05/28 00:32:14;;;;;;;0.98;0.30;;;16.80;71.90;16.70;99774.00;;;;341251;28;91977;-88
2021/05/28 00:32:27;;;;;;;1.05;0.30;;;16.70;71.80;16.60;99776.00;;;;342748;28;94357;-88
2021/05/28 00:32:38;;;;;;;1.12;0.30;;;16.70;71.80;16.60;99766.00;;;;343903;28;91367;-88
2021/05/28 00:32:51;;;;;;;1.35;0.20;;;16.70;71.90;16.60;99771.00;;;;341417;28;93472;-88
2021/05/28 00:33:03;;;;;;;1.27;0.20;;;16.80;72.00;16.70;99770.00;;;;343983;28;91900;-88
2021/05/28 00:33:15;;;;;;;1.00;0.20;;;16.70;72.10;16.70;99761.00;;;;342598;28;96735;-88
2021/05/28 00:33:27;;;;;;;0.70;0.20;;;16.70;72.10;16.60;99772.00;;;;342409;28;91984;-88
2021/05/28 00:33:39;;;;;;;0.68;0.20;;;16.70;72.10;16.70;99777.00;;;;341747;28;95453;-88
2021/05/28 00:33:50;;;;;;;0.55;0.20;;;16.70;72.10;16.70;99774.00;;;;342367;28;91974;-89
2021/05/28 00:34:03;;;;;;;0.95;0.30;;;16.70;72.10;16.80;99774.00;;;;341249;28;97089;-88
2021/05/28 00:34:14;;;;;;;1.10;0.40;;;16.60;72.70;16.70;99762.00;;;;339855;28;91947;-88
2021/05/28 00:34:26;;;;;;;1.63;0.40;;;16.70;72.10;16.80;99772.00;;;;339945;28;96150;-87
2021/05/28 00:34:38;;;;;;;1.30;0.20;;;16.60;72.20;16.70;99772.00;;;;341651;28;91242;-88
2021/05/28 00:34:50;;;;;;;1.35;0.20;;;16.70;72.10;16.70;99777.00;;;;343942;28;95937;-88
2021/05/28 00:35:03;;;;;;;1.15;0.30;;;16.70;72.10;16.70;99772.00;;;;341216;28;91943;-88
2021/05/28 00:35:17;;;;;;;0.90;0.20;;;16.60;72.10;16.70;99772.00;;;;342676;28;94549;-88
2021/05/28 00:35:29;;;;;;;0.68;0.10;;;16.60;72.10;16.70;99772.00;;;;341238;28;92263;-88
2021/05/28 00:35:41;;;;;;;0.55;0.10;;;16.70;72.40;16.70;99770.00;;;;340968;28;96122;-88
2021/05/28 00:35:53;;;;;;;0.63;0.10;;;16.60;72.20;16.80;99765.00;;;;341142;28;92112;-88
2021/05/28 00:36:05;;;;;;;0.65;0.20;;;16.70;72.30;16.80;99770.00;;;;341393;28;93335;-88
2021/05/28 00:36:18;;;;;;;1.13;0.20;;;16.60;73.00;16.80;99773.00;;;;342634;28;91051;-88
2021/05/28 00:36:29;;;;;;;1.60;0.20;;;16.70;72.40;16.90;99771.00;;;;340020;28;94157;-88
2021/05/28 00:36:41;;;;;;;1.42;0.20;;;16.70;72.30;16.90;99772.00;;;;341451;28;91835;-88
2021/05/28 00:36:53;;;;;;;1.20;0.20;;;16.70;72.70;16.80;99766.00;;;;339941;28;94719;-88
2021/05/28 00:37:05;;;;;;;0.55;0.20;;;16.70;72.10;16.80;99770.00;;;;340410;28;91926;-88
2021/05/28 00:37:17;;;;;;;0.60;0.20;;;16.70;72.00;16.80;99770.00;;;;338718;28;92909;-88
2021/05/28 00:37:29;;;;;;;0.70;0.10;;;16.70;72.10;16.70;99769.00;;;;338548;28;92206;-88
2021/05/28 00:37:41;;;;;;;0.88;0.20;;;16.70;72.10;16.70;99773.00;;;;341271;28;96712;-87
2021/05/28 00:37:53;;;;;;;0.90;0.40;;;16.70;72.10;16.70;99769.00;;;;343790;28;92031;-88
2021/05/28 00:38:05;;;;;;;1.77;0.40;;;16.70;72.30;16.80;99774.00;;;;342730;28;94264;-88
2021/05/28 00:38:17;;;;;;;1.70;0.30;;;16.70;72.30;16.80;99773.00;;;;342528;28;91906;-88
2021/05/28 00:38:29;;;;;;;1.85;0.20;;;16.70;72.40;16.90;99768.00;;;;341375;28;96638;-87
2021/05/28 00:38:41;;;;;;;1.48;0.20;;;16.70;72.30;16.80;99762.00;;;;342462;28;91257;-88
2021/05/28 00:38:53;;;;;;;1.38;0.30;;;16.70;72.10;16.60;99766.00;;;;344123;28;94635;-88
2021/05/28 00:39:05;;;;;;;1.17;0.30;;;16.70;71.90;16.60;99776.00;;;;342383;28;91971;-87
2021/05/28 00:39:17;;;;;;;1.10;0.30;;;16.60;71.90;16.70;99766.00;;;;342592;28;94848;-88
2021/05/28 00:39:28;;;;;;;0.80;0.30;;;16.60;72.10;16.80;99761.00;;;;341291;28;91104;-88
2021/05/28 00:39:40;;;;;;;0.80;0.30;;;16.70;72.20;16.80;99760.00;;;;340433;28;93380;-87
2021/05/28 00:39:52;;;;;;;1.33;0.35;;;16.70;72.30;16.70;99765.00;;;;342317;28;92092;-88
2021/05/28 00:40:05;;;;;;;1.48;0.30;;;16.70;72.30;16.80;99766.00;;;;344053;28;95700;-88
2021/05/28 00:40:17;;;;;;;1.60;0.22;;;16.70;72.10;16.80;99769.00;;;;342589;28;92230;-88
2021/05/28 00:40:29;;;;;;;0.80;0.20;;;16.70;72.20;16.70;99761.00;;;;342758;28;94617;-88
2021/05/28 00:40:41;;;;;;;0.90;0.32;;;16.70;72.10;16.70;99769.00;;;;342352;28;91798;-88
2021/05/28 00:40:52;;;;;;;1.25;0.38;;;16.70;72.10;16.70;99765.00;;;;341348;28;93295;-88
2021/05/28 00:41:04;;;;;;;1.40;0.25;;;16.60;72.10;16.70;99768.00;;;;342540;28;91115;-88
2021/05/28 00:41:16;;;;;;;1.20;0.20;;;16.60;72.30;16.80;99765.00;;;;342674;28;94318;-88
2021/05/28 00:41:28;;;;;;;1.15;0.20;;;16.70;72.30;16.80;99765.00;;;;339900;28;91082;-88
2021/05/28 00:41:40;;;;;;;2.05;0.15;;;16.70;72.30;16.90;99767.00;;;;344090;28;96603;-88
2021/05/28 00:41:52;;;;;;;3.10;0.22;;;16.70;72.40;16.80;99761.00;;;;340813;28;92109;-88
2021/05/28 00:42:04;;;;;;;3.20;0.40;;;16.70;72.30;16.80;99762.00;;;;343956;28;96314;-88
2021/05/28 00:42:16;;;;;;;1.75;0.40;;;16.70;72.30;16.80;99760.00;;;;342655;28;91916;-88
2021/05/28 00:42:28;;;;;;;1.50;0.30;;;16.70;72.10;16.80;99770.00;;;;341326;28;96651;-88
2021/05/28 00:42:40;;;;;;;1.55;0.30;;;16.70;72.10;16.80;99765.00;;;;338016;28;91538;-88
2021/05/28 00:42:52;;;;;;;1.20;0.30;;;16.70;72.10;16.80;99763.00;;;;341337;28;94604;-88
2021/05/28 00:43:04;;;;;;;1.05;0.22;;;16.70;72.10;16.80;99765.00;;;;341225;28;91173;-88
2021/05/28 00:43:16;;;;;;;1.02;0.20;;;16.70;72.10;16.90;99771.00;;;;341376;28;93757;-88
2021/05/28 00:43:28;;;;;;;1.08;0.20;;;16.70;72.20;16.90;99762.00;;;;342434;28;91907;-88
2021/05/28 00:43:40;;;;;;;0.70;0.20;;;16.70;72.10;16.90;99765.00;;;;342571;28;96068;-88
2021/05/28 00:43:52;;;;;;;0.80;0.20;;;16.70;72.10;16.90;99770.00;;;;342510;28;92767;-88
2021/05/28 00:44:04;;;;;;;0.98;0.28;;;16.70;72.10;16.80;99763.00;;;;341282;28;93905;-88
2021/05/28 00:44:23;;;;;;;1.10;0.40;;;16.70;72.10;16.80;99765.00;;;;341350;28;92045;-88
2021/05/28 00:44:37;;;;;;;2.58;0.25;;;16.70;72.10;16.90;99764.00;;;;338608;28;94230;-88
2021/05/28 00:44:49;;;;;;;2.60;0.20;;;16.70;72.10;16.90;99769.00;;;;338406;28;92247;-88
2021/05/28 00:45:01;;;;;;;2.97;0.30;;;16.70;72.10;16.90;99770.00;;;;341199;28;96169;-89
2021/05/28 00:45:14;;;;;;;1.88;0.30;;;16.70;72.10;17.00;99767.00;;;;342428;28;92058;-88
2021/05/28 00:45:26;;;;;;;2.65;0.30;;;16.70;72.10;16.70;99761.00;;;;338644;28;96134;-88
2021/05/28 00:45:38;;;;;;;2.17;0.30;;;16.70;72.00;16.90;99775.00;;;;341189;28;92113;-88
2021/05/28 00:45:50;;;;;;;1.15;0.20;;;16.70;72.10;16.90;99775.00;;;;340021;28;95239;-88
2021/05/28 00:46:02;;;;;;;1.20;0.20;;;16.70;72.20;16.70;99773.00;;;;339734;28;92042;-89
2021/05/28 00:46:13;;;;;;;1.15;0.20;;;16.70;72.10;16.80;99776.00;;;;339985;28;95570;-88
2021/05/28 00:46:26;;;;;;;0.90;0.20;;;16.70;72.10;16.90;99777.00;;;;341257;28;91950;-88
2021/05/28 00:46:38;;;;;;;0.70;0.10;;;16.70;72.20;17.00;99770.00;;;;339061;28;96607;-88
2021/05/28 00:46:50;;;;;;;0.20;0.10;;;16.70;72.30;16.80;99779.00;;;;342561;28;91299;-88
2021/05/28 00:47:02;;;;;;;0.85;0.20;;;16.70;72.90;16.80;99775.00;;;;344019;28;92126;-88
2021/05/28 00:47:14;;;;;;;1.20;0.30;;;16.70;72.30;16.90;99770.00;;;;340938;28;92051;-88
2021/05/28 00:47:26;;;;;;;1.40;0.30;;;16.70;72.50;16.80;99775.00;;;;341405;28;93832;-88
2021/05/28 00:47:38;;;;;;;0.60;0.28;;;16.70;72.40;16.80;99777.00;;;;342601;28;92048;-88
2021/05/28 00:47:49;;;;;;;0.52;0.13;;;16.70;72.40;16.90;99778.00;;;;342604;28;94902;-88
2021/05/28 00:48:01;;;;;;;0.40;0.10;;;16.70;72.50;17.00;99775.00;;;;339840;28;92235;-88
2021/05/28 00:48:13;;;;;;;0.70;0.20;;;16.70;73.20;17.00;99778.00;;;;341306;28;97519;-88
2021/05/28 00:48:25;;;;;;;0.80;0.20;;;16.70;72.60;16.90;99774.00;;;;342509;28;92006;-88
2021/05/28 00:48:37;;;;;;;0.88;0.20;;;16.70;72.40;17.00;99777.00;;;;338797;28;97128;-88
2021/05/28 00:48:52;;;;;;;0.55;0.20;;;16.70;72.20;17.00;99779.00;;;;341449;28;91239;-88
2021/05/28 00:49:03;;;;;;;0.70;0.20;;;16.70;72.10;16.90;99776.00;;;;341093;28;95114;-88
2021/05/28 00:49:15;;;;;;;1.20;0.20;;;16.70;72.10;17.00;99771.00;;;;339771;28;91262;-88
2021/05/28 00:49:27;;;;;;;1.23;0.20;;;16.70;72.20;16.90;99778.00;;;;341340;28;96935;-87
2021/05/28 00:49:39;;;;;;;0.98;0.20;;;16.70;72.30;16.90;99774.00;;;;340376;28;91708;-88
2021/05/28 00:49:51;;;;;;;1.70;0.30;;;16.70;72.30;16.70;99772.00;;;;343959;28;95282;-88
2021/05/28 00:50:05;;;;;;;2.53;0.50;;;16.70;72.10;16.70;99776.00;;;;341179;28;92018;-88
2021/05/28 00:50:16;;;;;;;2.30;0.43;;;16.70;71.90;16.80;99774.00;;;;341433;28;93455;-88
2021/05/28 00:50:29;;;;;;;1.85;0.25;;;16.70;72.10;16.70;99775.00;;;;339968;28;91023;-88
2021/05/28 00:50:41;;;;;;;0.60;0.20;;;16.70;72.30;16.70;99771.00;;;;338640;28;97336;-88
2021/05/28 00:50:53;;;;;;;0.57;0.20;;;16.70;71.80;16.70;99772.00;;;;340011;28;91429;-88
2021/05/28 00:51:05;;;;;;;0.55;0.20;;;16.70;71.70;16.70;99778.00;;;;339521;28;95728;-87
2021/05/28 00:51:17;;;;;;;1.15;0.20;;;16.70;71.80;16.70;99778.00;;;;341159;28;92232;-87
2021/05/28 00:51:29;;;;;;;1.10;0.20;;;16.70;71.90;16.80;99768.00;;;;341514;28;93001;-88
2021/05/28 00:51:40;;;;;;;0.95;0.20;;;16.70;72.00;16.80;99771.00;;;;339341;28;92185;-87
2021/05/28 00:51:52;;;;;;;1.30;0.20;;;16.70;72.10;16.70;99774.00;;;;341881;28;95837;-88
2021/05/28 00:52:04;;;;;;;1.10;0.20;;;16.70;72.10;16.80;99775.00;;;;338709;28;91938;-88
2021/05/28 00:52:16;;;;;;;0.88;0.20;;;16.70;72.10;16.90;99775.00;;;;339929;28;93528;-88
2021/05/28 00:52:28;;;;;;;1.30;0.25;;;16.60;72.00;16.80;99780.00;;;;339801;28;92016;-88
2021/05/28 00:52:40;;;;;;;1.27;0.25;;;16.60;72.00;16.80;99777.00;;;;339802;28;97798;-88
2021/05/28 00:52:53;;;;;;;0.90;0.20;;;16.60;72.10;16.90;99780.00;;;;342721;28;91186;-88
2021/05/28 00:53:05;;;;;;;0.73;0.20;;;16.60;72.00;16.80;99777.00;;;;344050;28;93869;-88
2021/05/28 00:53:17;;;;;;;0.80;0.20;;;16.60;72.00;16.90;99773.00;;;;341184;28;92008;-88
2021/05/28 00:53:29;;;;;;;1.05;0.20;;;16.70;72.20;16.80;99780.00;;;;340084;28;94202;-88
2021/05/28 00:53:41;;;;;;;1.02;0.20;;;16.70;72.10;16.80;99776.00;;;;341200;28;92294;-88
2021/05/28 00:53:52;;;;;;;0.75;0.20;;;16.70;72.20;16.80;99773.00;;;;339984;28;96497;-88
2021/05/28 00:54:05;;;;;;;1.33;0.20;;;16.60;72.10;16.70;99773.00;;;;339794;28;91994;-88
2021/05/28 00:54:16;;;;;;;2.60;0.30;;;16.70;72.20;16.70;99776.00;;;;340122;28;94277;-88